Time;durP1;ratioP1;P1;durP2;ratioP2;P2;SDS_P1;SDS_P2;PMS_P1;PMS_P2;Temp;Humidity;BMP_temperature;BMP_pressure;BME280_temperature;BME280_humidity;BME280_pressure;Samples;Min_cycle;Max_cycle;Signal;HPM_P1;HPM_P2
2022/05/26 00:00:59;;;;;;;7.82;2.33;;;;;;;15.26;80.35;101305.84;5038900;28;20441;-73
2022/05/26 00:03:24;;;;;;;8.10;2.03;;;;;;;15.24;80.30;101305.34;5038399;28;20033;-73
2022/05/26 00:05:51;;;;;;;6.75;2.10;;;;;;;15.24;80.73;101304.47;5058144;28;20045;-72
2022/05/26 00:08:17;;;;;;;7.35;2.08;;;;;;;15.22;80.76;101310.41;5044136;28;20029;-73
2022/05/26 00:10:42;;;;;;;7.93;1.98;;;;;;;15.22;81.81;101318.78;5045035;28;20036;-73
2022/05/26 00:13:08;;;;;;;5.65;1.70;;;;;;;15.20;81.54;101323.84;5038316;28;20041;-73
2022/05/26 00:15:33;;;;;;;8.18;2.05;;;;;;;15.18;81.09;101324.19;5027086;28;20033;-73
2022/05/26 00:17:59;;;;;;;8.93;2.08;;;;;;;15.17;81.46;101324.47;5036073;28;20030;-73
2022/05/26 00:20:24;;;;;;;8.27;2.38;;;;;;;15.14;80.43;101322.28;5059117;28;20026;-73
2022/05/26 00:22:50;;;;;;;10.30;1.90;;;;;;;15.14;80.51;101306.31;5036318;28;20033;-73
2022/05/26 00:25:15;;;;;;;5.90;2.30;;;;;;;15.15;81.44;101318.34;5038224;28;20029;-73
2022/05/26 00:27:41;;;;;;;6.63;1.73;;;;;;;15.12;80.72;101318.97;5033827;28;20033;-73
2022/05/26 00:30:07;;;;;;;8.50;2.30;;;;;;;15.05;82.46;101329.72;5057614;28;20647;-73
2022/05/26 00:32:32;;;;;;;11.43;2.72;;;;;;;15.00;83.60;101332.59;5036106;28;20032;-72
2022/05/26 00:34:58;;;;;;;13.88;2.58;;;;;;;15.01;84.35;101335.06;5037983;28;20025;-72
2022/05/26 00:37:23;;;;;;;8.40;2.30;;;;;;;14.93;83.89;101328.22;5038072;28;20049;-73
2022/05/26 00:39:49;;;;;;;11.00;2.30;;;;;;;14.93;83.63;101322.63;5035773;28;20022;-72
2022/05/26 00:42:14;;;;;;;11.23;2.78;;;;;;;14.92;83.82;101322.91;5037443;28;20044;-73
2022/05/26 00:44:40;;;;;;;7.90;2.38;;;;;;;14.91;84.20;101319.28;5036682;28;20022;-72
2022/05/26 00:47:10;;;;;;;14.23;2.83;;;;;;;14.88;84.51;101328.28;5020335;28;20030;-73
2022/05/26 00:49:47;;;;;;;12.35;2.75;;;;;;;14.90;84.09;101323.22;5035357;28;20109;-73
2022/05/26 00:52:36;;;;;;;7.35;2.28;;;;;;;14.87;84.10;101323.81;5023890;28;20038;-73
2022/05/26 00:55:09;;;;;;;8.20;2.63;;;;;;;14.88;84.41;101314.31;5002791;28;20030;-73
2022/05/26 00:57:37;;;;;;;10.73;2.13;;;;;;;14.82;83.55;101307.16;5028384;28;20082;-73
2022/05/26 01:00:15;;;;;;;9.27;2.50;;;;;;;14.78;86.03;101319.22;5035995;28;20694;-73
2022/05/26 01:02:44;;;;;;;5.88;1.90;;;;;;;14.74;86.05;101330.19;5033495;28;20097;-73
2022/05/26 01:05:16;;;;;;;7.68;1.67;;;;;;;14.73;84.92;101322.91;5036147;28;20069;-73
2022/05/26 01:07:42;;;;;;;4.30;1.43;;;;;;;14.76;85.36;101322.31;5020065;28;20485;-72
2022/05/26 01:10:09;;;;;;;8.05;1.75;;;;;;;14.71;84.35;101330.81;5037433;28;20091;-73
2022/05/26 01:12:34;;;;;;;5.75;1.40;;;;;;;14.70;84.57;101329.13;5049330;28;20677;-73
2022/05/26 01:15:07;;;;;;;6.90;1.52;;;;;;;14.68;84.56;101326.66;5029328;28;20057;-73
2022/05/26 01:18:05;;;;;;;7.15;1.25;;;;;;;14.62;84.12;101332.59;5030669;28;20045;-73
2022/05/26 01:20:33;;;;;;;3.88;1.20;;;;;;;14.61;84.26;101326.16;5024646;28;20038;-73
2022/05/26 01:23:28;;;;;;;6.93;1.45;;;;;;;14.62;84.96;101327.00;5037069;28;20509;-73
2022/05/26 01:26:02;;;;;;;3.67;1.08;;;;;;;14.59;84.43;101336.81;5036924;28;20029;-73
2022/05/26 01:28:40;;;;;;;3.63;0.98;;;;;;;14.58;84.23;101328.75;5036129;28;20087;-73
2022/05/26 01:31:27;;;;;;;4.65;1.00;;;;;;;14.58;83.88;101323.16;5037109;28;20040;-72
2022/05/26 01:34:14;;;;;;;5.15;1.02;;;;;;;14.57;83.49;101321.47;5018915;28;20125;-72
2022/05/26 01:37:04;;;;;;;6.05;1.42;;;;;;;14.54;83.76;101325.69;5018491;28;20037;-73
2022/05/26 01:39:37;;;;;;;4.03;1.23;;;;;;;14.55;84.50;101320.97;5021889;28;20033;-73
2022/05/26 01:42:09;;;;;;;3.65;1.15;;;;;;;14.54;84.43;101328.50;5033848;28;20455;-72
2022/05/26 01:44:44;;;;;;;5.28;1.20;;;;;;;14.52;84.63;101326.03;5035329;28;20375;-72
2022/05/26 01:47:20;;;;;;;2.42;1.08;;;;;;;14.49;83.94;101325.75;5032459;28;20037;-73
2022/05/26 01:49:53;;;;;;;1.88;0.90;;;;;;;14.49;84.46;101328.56;5030170;28;20510;-73
2022/05/26 01:52:35;;;;;;;5.15;0.98;;;;;;;14.47;83.87;101328.03;5019469;28;20025;-72
2022/05/26 01:55:09;;;;;;;5.05;1.20;;;;;;;14.45;83.59;101327.47;5032680;28;20087;-73
2022/05/26 01:57:43;;;;;;;4.20;1.02;;;;;;;14.45;83.95;101331.09;5035398;28;20681;-73
2022/05/26 02:00:11;;;;;;;4.65;0.95;;;;;;;14.44;84.66;101326.66;5034901;28;20540;-73
2022/05/26 02:03:05;;;;;;;5.18;1.17;;;;;;;14.43;84.56;101327.81;5018980;28;20084;-73
2022/05/26 02:05:37;;;;;;;3.05;0.80;;;;;;;14.39;83.82;101335.09;5045597;28;20025;-73
2022/05/26 02:08:12;;;;;;;2.83;1.13;;;;;;;14.37;83.41;101326.19;5033935;28;20516;-73
2022/05/26 02:10:44;;;;;;;2.97;0.93;;;;;;;14.37;84.07;101334.56;5018953;28;20029;-72
2022/05/26 02:13:19;;;;;;;5.00;0.90;;;;;;;14.37;84.57;101334.56;5022238;28;20054;-73
2022/05/26 02:15:50;;;;;;;3.13;0.80;;;;;;;14.32;83.67;101334.66;5018602;28;20025;-73
2022/05/26 02:18:30;;;;;;;4.55;1.08;;;;;;;14.29;84.17;101332.44;5020645;28;20539;-73
2022/05/26 02:21:07;;;;;;;3.00;0.80;;;;;;;14.32;85.28;101326.28;5034982;28;20029;-72
2022/05/26 02:23:35;;;;;;;2.10;0.85;;;;;;;14.23;85.33;101333.63;5035050;28;20025;-73
2022/05/26 02:26:01;;;;;;;2.40;0.82;;;;;;;14.25;84.79;101325.78;5034943;28;20049;-73
2022/05/26 02:28:27;;;;;;;2.65;0.73;;;;;;;14.26;85.07;101327.44;5035385;28;20037;-73
2022/05/26 02:30:52;;;;;;;2.00;0.70;;;;;;;14.20;84.18;101323.06;5035640;28;20053;-73
2022/05/26 02:33:18;;;;;;;1.27;0.60;;;;;;;14.19;84.48;101327.00;5034330;28;20068;-73
2022/05/26 02:35:45;;;;;;;3.08;0.80;;;;;;;14.20;84.81;101326.69;5034696;28;20060;-73
2022/05/26 02:38:18;;;;;;;2.05;0.65;;;;;;;14.18;84.95;101333.69;4998965;28;20026;-73
2022/05/26 02:40:44;;;;;;;1.92;0.70;;;;;;;14.15;84.29;101329.56;5043273;28;20042;-72
2022/05/26 02:43:13;;;;;;;2.88;0.57;;;;;;;14.16;84.23;101330.38;5026951;28;20033;-72
2022/05/26 02:45:42;;;;;;;1.45;0.43;;;;;;;14.13;84.30;101331.00;5034643;28;20485;-73
2022/05/26 02:48:15;;;;;;;3.33;0.60;;;;;;;14.11;84.58;101330.44;5034729;28;20108;-73
2022/05/26 02:50:43;;;;;;;;;;;;;;;14.07;84.08;101345.00;5035192;28;20038;-73
2022/05/26 02:53:27;;;;;;;3.65;0.77;;;;;;;14.06;84.26;101340.53;5036971;28;19957;-73
2022/05/26 02:56:24;;;;;;;4.35;1.08;;;;;;;14.01;84.22;101340.63;5042857;28;20033;-73
2022/05/26 02:59:24;;;;;;;3.35;0.57;;;;;;;14.00;84.46;101344.53;5022738;28;20044;-73
2022/05/26 03:01:56;;;;;;;3.95;0.75;;;;;;;14.01;84.39;101340.63;5018233;28;20049;-73
2022/05/26 03:04:45;;;;;;;3.63;0.80;;;;;;;13.94;84.49;101345.72;5035505;28;20443;-73
2022/05/26 03:07:19;;;;;;;0.93;0.50;;;;;;;13.95;85.18;101340.97;5035441;28;20034;-73
2022/05/26 03:09:44;;;;;;;3.30;0.68;;;;;;;13.95;84.56;101341.78;5018408;28;20083;-73
2022/05/26 03:12:27;;;;;;;3.47;0.90;;;;;;;13.94;84.91;101342.91;5035869;28;20053;-73
2022/05/26 03:14:53;;;;;;;2.88;0.70;;;;;;;13.94;84.71;101342.91;5020016;28;20379;-72
2022/05/26 03:17:19;;;;;;;2.08;0.47;;;;;;;13.92;84.72;101350.75;5060071;28;20037;-72
2022/05/26 03:19:44;;;;;;;2.20;0.63;;;;;;;13.92;85.49;101352.72;5047829;28;20040;-72
2022/05/26 03:22:10;;;;;;;3.45;0.60;;;;;;;13.90;85.08;101357.75;5035543;28;20033;-72
2022/05/26 03:24:35;;;;;;;3.72;0.77;;;;;;;13.90;85.25;101350.25;5035759;28;20548;-72
2022/05/26 03:27:01;;;;;;;1.73;0.40;;;;;;;13.90;85.39;101352.19;5035609;28;20040;-73
2022/05/26 03:29:26;;;;;;;2.03;0.70;;;;;;;13.87;85.02;101350.81;5033000;28;20033;-72
2022/05/26 03:31:52;;;;;;;1.30;0.40;;;;;;;13.87;85.59;101353.59;5035493;28;20041;-73
2022/05/26 03:42:29;;;;;;;2.05;0.52;;;;;;;13.86;85.68;101363.13;5034096;28;20033;-72
2022/05/26 03:44:56;;;;;;;0.80;0.30;;;;;;;13.85;85.28;101359.50;5035253;28;20026;-72
2022/05/26 03:47:21;;;;;;;2.35;0.50;;;;;;;13.82;85.22;101350.88;5034508;28;20037;-72
2022/05/26 03:49:47;;;;;;;1.73;0.52;;;;;;;13.82;85.55;101360.09;5032684;28;20040;-72
2022/05/26 03:52:12;;;;;;;3.10;0.50;;;;;;;13.80;85.82;101359.53;5037747;28;20030;-73
2022/05/26 03:54:38;;;;;;;2.80;0.50;;;;;;;13.80;86.37;101369.88;5037583;28;20041;-73
2022/05/26 03:57:04;;;;;;;3.25;1.00;;;;;;;13.82;85.44;101365.69;5038872;28;20091;-73
2022/05/26 03:59:30;;;;;;;3.10;0.82;;;;;;;13.78;86.07;101383.28;5038508;28;20057;-73
2022/05/26 04:01:55;;;;;;;4.28;0.70;;;;;;;13.78;85.82;101380.50;5039050;28;20112;-72
2022/05/26 04:04:21;;;;;;;1.75;0.70;;;;;;;13.77;85.99;101384.44;5035237;28;20065;-73
2022/05/26 04:06:48;;;;;;;2.45;0.65;;;;;;;13.78;86.11;101374.94;5038929;28;20032;-73
2022/05/26 04:09:14;;;;;;;4.45;1.00;;;;;;;13.76;85.80;101368.78;5038594;28;20160;-73
2022/05/26 04:11:39;;;;;;;2.10;0.77;;;;;;;13.76;86.24;101366.88;5038379;28;20029;-72
2022/05/26 04:14:05;;;;;;;2.53;0.65;;;;;;;13.76;86.95;101371.59;5038192;28;20059;-72
2022/05/26 04:16:30;;;;;;;2.13;0.60;;;;;;;13.75;87.03;101365.19;5025105;28;20032;-72
2022/05/26 04:18:56;;;;;;;1.58;0.60;;;;;;;13.75;86.76;101373.56;5038452;28;20029;-73
2022/05/26 04:21:21;;;;;;;5.50;0.70;;;;;;;13.75;86.04;101381.94;5037029;28;20033;-73
2022/05/26 04:23:47;;;;;;;1.48;0.60;;;;;;;13.74;86.68;101379.44;5038532;28;20513;-72
2022/05/26 04:26:12;;;;;;;4.07;0.60;;;;;;;13.77;86.69;101376.06;5037907;28;20087;-72
2022/05/26 04:28:38;;;;;;;2.60;0.73;;;;;;;13.76;87.09;101382.75;5036876;28;20040;-73
2022/05/26 04:31:03;;;;;;;2.17;0.70;;;;;;;13.73;87.37;101370.22;5009685;28;20061;-72
2022/05/26 04:33:29;;;;;;;4.25;0.63;;;;;;;13.73;87.13;101383.34;5045968;28;20041;-72
2022/05/26 04:35:54;;;;;;;3.40;0.80;;;;;;;13.74;87.54;101379.44;5036803;28;20379;-73
2022/05/26 04:38:20;;;;;;;3.60;0.95;;;;;;;13.75;87.57;101379.13;5036954;28;20486;-72
2022/05/26 04:40:55;;;;;;;3.20;0.70;;;;;;;13.72;87.17;101379.72;5037815;28;20031;-73
2022/05/26 04:43:20;;;;;;;4.70;1.08;;;;;;;13.72;87.34;101387.28;5037668;28;20088;-73
2022/05/26 04:45:46;;;;;;;2.65;0.43;;;;;;;13.70;87.36;101381.16;5038096;28;20037;-73
2022/05/26 04:48:11;;;;;;;2.65;0.80;;;;;;;13.72;87.43;101379.72;5037856;28;20040;-72
2022/05/26 04:50:37;;;;;;;5.32;0.50;;;;;;;13.73;88.95;101381.38;5036574;28;20498;-72
2022/05/26 04:53:02;;;;;;;4.82;0.70;;;;;;;13.72;88.86;101392.84;5037763;28;20037;-73
2022/05/26 04:55:28;;;;;;;4.57;0.98;;;;;;;13.72;88.84;101399.25;5037387;28;20036;-72
2022/05/26 04:57:53;;;;;;;3.30;0.50;;;;;;;13.73;88.94;101402.88;5020019;28;20374;-72
2022/05/26 05:00:19;;;;;;;4.32;0.60;;;;;;;13.73;89.07;101400.09;5037402;28;20036;-73
2022/05/26 05:02:45;;;;;;;5.00;0.70;;;;;;;13.74;89.97;101404.56;5037469;28;20029;-72
2022/05/26 05:05:11;;;;;;;2.53;0.50;;;;;;;13.75;90.03;101397.84;5037813;28;20040;-73
2022/05/26 05:07:36;;;;;;;3.85;0.70;;;;;;;13.79;90.32;101404.50;5041379;28;20445;-72
2022/05/26 05:10:02;;;;;;;2.00;0.50;;;;;;;13.81;90.59;101410.63;5036251;28;20025;-72
2022/05/26 05:12:28;;;;;;;3.03;0.98;;;;;;;13.82;90.45;101409.53;5019720;28;20080;-73
2022/05/26 05:14:54;;;;;;;2.88;0.50;;;;;;;13.85;90.67;101412.53;5031417;28;20025;-72
2022/05/26 05:17:21;;;;;;;3.72;1.05;;;;;;;13.89;90.41;101409.16;5030116;28;20037;-73
2022/05/26 05:19:46;;;;;;;1.73;0.38;;;;;;;13.92;90.84;101409.41;4983684;28;20498;-72
2022/05/26 05:22:25;;;;;;;0.93;0.50;;;;;;;13.94;90.41;101407.16;5028612;28;20075;-73
2022/05/26 05:24:57;;;;;;;1.45;0.63;;;;;;;13.98;91.37;101413.78;5024351;28;20068;-73
2022/05/26 05:27:26;;;;;;;1.67;0.50;;;;;;;14.00;92.67;101417.13;5035993;28;20034;-72
2022/05/26 05:29:53;;;;;;;3.83;0.63;;;;;;;14.00;91.72;101417.13;5035649;28;20174;-72
2022/05/26 05:32:21;;;;;;;1.83;0.70;;;;;;;14.01;91.74;101421.63;5037087;28;20040;-72
2022/05/26 05:34:55;;;;;;;2.05;0.30;;;;;;;14.05;90.65;101419.88;5036085;28;20377;-73
2022/05/26 05:37:21;;;;;;;1.67;0.50;;;;;;;14.08;90.89;101419.28;5037012;28;20108;-73
2022/05/26 05:39:46;;;;;;;1.25;0.50;;;;;;;14.10;91.25;101416.22;5035824;28;20029;-73
2022/05/26 05:42:12;;;;;;;1.55;0.50;;;;;;;14.13;90.71;101421.19;5036787;28;20033;-72
2022/05/26 05:44:37;;;;;;;1.92;0.40;;;;;;;14.15;91.32;101423.69;5035336;28;20505;-74
2022/05/26 05:47:03;;;;;;;1.35;0.40;;;;;;;14.18;90.98;101418.34;5036836;28;20033;-73
2022/05/26 05:49:30;;;;;;;2.03;0.43;;;;;;;14.22;91.51;101426.97;5019095;28;20055;-72
2022/05/26 05:51:57;;;;;;;4.47;0.50;;;;;;;14.25;91.55;101431.97;5019255;28;20030;-73
2022/05/26 05:54:22;;;;;;;1.05;0.47;;;;;;;14.29;91.26;101430.22;5035404;28;20095;-72
2022/05/26 05:56:48;;;;;;;2.05;0.60;;;;;;;14.31;91.08;101441.94;5036440;28;20029;-72
2022/05/26 05:59:14;;;;;;;1.17;0.40;;;;;;;14.33;91.00;101433.28;5036313;28;20022;-72
2022/05/26 06:01:39;;;;;;;2.30;0.50;;;;;;;14.35;91.45;101428.22;5036860;28;20032;-72
2022/05/26 06:04:05;;;;;;;2.08;0.80;;;;;;;14.34;90.92;101432.97;5065703;28;20029;-72
2022/05/26 06:06:39;;;;;;;1.15;0.50;;;;;;;14.37;88.95;101453.91;5035049;28;20504;-72
2022/05/26 06:09:04;;;;;;;2.03;0.60;;;;;;;14.40;88.17;101445.78;5048037;28;20033;-72
2022/05/26 06:11:31;;;;;;;1.98;0.40;;;;;;;14.43;89.46;101456.34;5042814;28;20035;-72
2022/05/26 06:13:57;;;;;;;1.15;0.35;;;;;;;14.45;89.56;101453.25;5040436;28;20471;-72
2022/05/26 06:16:23;;;;;;;2.42;0.32;;;;;;;14.48;88.97;101461.03;5021778;28;20133;-72
2022/05/26 06:18:50;;;;;;;3.22;0.40;;;;;;;14.50;90.67;101464.38;5034588;28;20069;-72
2022/05/26 06:21:16;;;;;;;2.80;0.50;;;;;;;14.50;88.64;101465.19;5036142;28;20025;-72
2022/05/26 06:23:41;;;;;;;2.00;0.40;;;;;;;14.55;88.75;101471.91;5035124;28;20516;-72
2022/05/26 06:26:07;;;;;;;2.10;0.45;;;;;;;14.57;88.32;101476.06;5034846;28;20034;-72
2022/05/26 06:31:20;;;;;;;1.63;0.30;;;;;;;14.61;88.84;101471.53;5024011;28;20033;-73
2022/05/26 06:39:13;;;;;;;5.07;0.50;;;;;;;14.69;89.08;101482.06;5021071;28;20029;-73
2022/05/26 06:44:23;;;;;;;0.95;0.50;;;;;;;14.77;89.36;101496.53;5020806;28;20397;-72
2022/05/26 06:46:49;;;;;;;2.75;0.40;;;;;;;14.80;89.75;101507.13;5034814;28;20033;-71
2022/05/26 06:49:14;;;;;;;1.05;0.35;;;;;;;14.82;89.57;101497.31;5035879;28;20395;-71
2022/05/26 06:51:42;;;;;;;2.67;0.52;;;;;;;14.86;88.54;101497.53;5034702;28;20521;-72
2022/05/26 06:54:07;;;;;;;1.80;0.52;;;;;;;14.91;88.72;101498.28;5018248;28;20030;-72
2022/05/26 06:56:33;;;;;;;2.90;0.60;;;;;;;14.95;88.86;101510.53;5035644;28;20036;-72
2022/05/26 06:58:58;;;;;;;2.65;0.43;;;;;;;15.01;88.30;101504.88;5034464;28;20036;-72
2022/05/26 07:01:25;;;;;;;2.05;0.65;;;;;;;15.07;88.31;101510.13;5036013;28;20489;-72
2022/05/26 07:03:50;;;;;;;1.83;0.47;;;;;;;15.15;88.29;101509.44;5035887;28;20498;-72
2022/05/26 07:06:20;;;;;;;3.95;0.47;;;;;;;15.24;86.59;101498.41;5034328;28;20029;-72
2022/05/26 07:08:46;;;;;;;2.25;0.60;;;;;;;15.34;84.98;101494.63;5035848;28;20030;-72
2022/05/26 07:11:12;;;;;;;2.60;0.30;;;;;;;15.47;84.43;101505.06;5035677;28;20544;-72
2022/05/26 07:13:37;;;;;;;4.25;0.43;;;;;;;15.63;84.42;101505.69;5034473;28;20475;-72
2022/05/26 07:16:03;;;;;;;3.60;0.70;;;;;;;15.78;84.59;101513.03;5020809;28;20421;-72
2022/05/26 07:18:29;;;;;;;3.17;0.43;;;;;;;15.95;84.13;101510.50;5036447;28;20029;-72
2022/05/26 07:20:55;;;;;;;1.80;0.70;;;;;;;16.07;84.78;101508.06;5039336;28;20034;-72
2022/05/26 07:23:21;;;;;;;1.35;0.50;;;;;;;16.21;82.96;101513.66;5038469;28;20029;-72
2022/05/26 07:25:46;;;;;;;3.60;0.60;;;;;;;16.34;81.75;101516.81;5039472;28;20095;-72
2022/05/26 07:28:14;;;;;;;1.95;0.50;;;;;;;16.44;81.28;101511.03;5039207;28;20526;-72
2022/05/26 07:30:41;;;;;;;4.50;0.68;;;;;;;16.53;81.09;101514.78;5040384;28;20033;-72
2022/05/26 07:33:07;;;;;;;2.33;0.50;;;;;;;16.61;80.77;101511.25;5050357;28;20033;-72
2022/05/26 07:35:32;;;;;;;3.00;0.70;;;;;;;16.69;80.50;101510.53;5039418;28;20040;-72
2022/05/26 07:43:27;;;;;;;2.67;0.77;;;;;;;16.88;79.40;101527.31;5037938;28;20386;-72
2022/05/26 07:45:52;;;;;;;3.45;0.88;;;;;;;16.91;78.99;101532.28;5021536;28;20061;-72
2022/05/26 07:48:18;;;;;;;3.15;0.70;;;;;;;16.93;78.99;101532.78;5036034;28;20049;-72
2022/05/26 07:50:43;;;;;;;3.78;0.80;;;;;;;16.95;78.72;101538.09;5038952;28;20552;-72
2022/05/26 07:53:09;;;;;;;3.80;0.95;;;;;;;17.00;78.87;101539.97;5037843;28;20036;-72
2022/05/26 07:55:34;;;;;;;3.90;0.77;;;;;;;17.00;78.66;101546.41;5037466;28;20022;-72
2022/05/26 07:57:59;;;;;;;3.78;0.70;;;;;;;17.05;78.24;101543.50;5021033;28;20029;-72
2022/05/26 08:00:25;;;;;;;1.83;0.50;;;;;;;17.10;77.91;101545.34;5037361;28;20029;-72
2022/05/26 08:02:51;;;;;;;3.58;0.70;;;;;;;17.11;77.05;101550.66;5038661;28;20036;-72
2022/05/26 08:05:16;;;;;;;2.83;0.80;;;;;;;17.13;76.27;101545.56;5038645;28;20033;-72
2022/05/26 08:07:43;;;;;;;3.55;0.95;;;;;;;17.20;76.21;101545.97;5039992;28;20496;-72
2022/05/26 08:10:09;;;;;;;1.88;0.70;;;;;;;17.25;76.39;101552.63;5049658;28;20033;-72
2022/05/26 08:12:35;;;;;;;3.75;0.70;;;;;;;17.31;75.70;101551.38;5032499;28;20099;-72
2022/05/26 08:15:00;;;;;;;4.60;0.60;;;;;;;17.36;75.63;101554.06;5031629;28;20022;-72
2022/05/26 08:17:26;;;;;;;2.88;0.55;;;;;;;17.41;75.45;101553.94;5032008;28;20030;-72
2022/05/26 08:19:52;;;;;;;2.88;0.50;;;;;;;17.46;75.08;101556.63;5004675;28;20033;-72
2022/05/26 08:22:20;;;;;;;2.00;0.60;;;;;;;17.46;75.94;101564.22;4985164;28;20036;-72
2022/05/26 08:24:52;;;;;;;1.73;0.50;;;;;;;17.50;75.63;101571.72;5037117;28;20033;-72
2022/05/26 08:27:18;;;;;;;1.63;0.47;;;;;;;17.55;74.84;101566.00;5038326;28;20083;-72
2022/05/26 08:29:44;;;;;;;2.05;0.60;;;;;;;17.59;74.20;101566.19;5036783;28;20034;-72
2022/05/26 08:32:09;;;;;;;1.70;0.63;;;;;;;17.61;74.01;101578.75;5036566;28;20026;-72
2022/05/26 08:34:35;;;;;;;3.25;0.65;;;;;;;17.61;74.83;101577.94;5038134;28;20029;-72
2022/05/26 08:37:03;;;;;;;5.78;0.65;;;;;;;17.62;74.44;101572.00;5037141;28;20036;-72
2022/05/26 08:39:31;;;;;;;1.73;0.50;;;;;;;17.65;73.70;101579.78;5037145;28;20112;-72
2022/05/26 08:41:56;;;;;;;2.10;0.50;;;;;;;17.63;74.30;101582.09;5023151;28;20585;-72
2022/05/26 08:44:25;;;;;;;4.03;0.73;;;;;;;17.66;74.31;101591.84;5033981;28;20077;-72
2022/05/26 08:47:01;;;;;;;3.60;0.65;;;;;;;17.69;74.17;101581.94;5034402;28;20125;-72
2022/05/26 08:49:48;;;;;;;2.42;0.50;;;;;;;17.71;74.54;101593.72;5037433;28;20454;-72
2022/05/26 08:52:23;;;;;;;3.33;0.63;;;;;;;17.71;74.76;101585.28;5051751;28;20078;-72
2022/05/26 08:55:08;;;;;;;1.40;0.43;;;;;;;17.75;74.42;101589.13;5019800;28;20502;-72
2022/05/26 08:57:39;;;;;;;2.38;0.70;;;;;;;17.75;73.43;101600.38;5031886;28;20085;-72
2022/05/26 09:00:07;;;;;;;0.93;0.50;;;;;;;17.75;73.28;101594.75;5016688;28;20030;-72
2022/05/26 09:02:34;;;;;;;3.38;0.65;;;;;;;17.79;72.81;101593.00;5036064;28;20095;-72
2022/05/26 09:05:02;;;;;;;1.40;0.50;;;;;;;17.71;71.25;101596.53;5036341;28;20458;-72
2022/05/26 09:13:11;;;;;;;2.10;0.70;;;;;;;17.80;71.24;101601.13;5011380;28;20103;-72
2022/05/26 09:15:37;;;;;;;2.40;0.50;;;;;;;17.85;71.00;101611.41;5025811;28;20025;-72
2022/05/26 09:18:14;;;;;;;3.35;0.70;;;;;;;17.86;70.99;101604.66;5073054;28;20078;-72
2022/05/26 09:20:40;;;;;;;3.92;0.50;;;;;;;17.85;71.67;101612.22;5043824;28;20021;-72
2022/05/26 09:23:35;;;;;;;2.55;0.50;;;;;;;17.90;71.43;101613.25;5036321;28;20429;-72
2022/05/26 09:26:00;;;;;;;1.70;0.50;;;;;;;17.93;71.67;101619.06;5021286;28;20580;-72
2022/05/26 09:28:39;;;;;;;2.42;0.50;;;;;;;17.95;71.23;101622.41;5036405;28;20052;-72
2022/05/26 09:31:34;;;;;;;1.77;0.52;;;;;;;18.02;71.31;101628.41;5036524;28;20037;-72
2022/05/26 09:34:23;;;;;;;2.40;0.50;;;;;;;18.11;71.82;101619.22;5037074;28;20399;-72
2022/05/26 09:37:05;;;;;;;2.85;0.52;;;;;;;18.18;71.71;101631.69;5037111;28;20183;-72
2022/05/26 09:39:42;;;;;;;1.73;0.50;;;;;;;18.27;71.80;101640.19;5037085;28;20033;-72
2022/05/26 09:42:17;;;;;;;1.27;0.38;;;;;;;18.36;71.85;101635.47;4988529;28;20017;-72
2022/05/26 09:45:13;;;;;;;1.25;0.50;;;;;;;18.43;70.78;101633.03;5019073;28;20033;-72
2022/05/26 09:47:57;;;;;;;1.27;0.30;;;;;;;18.53;69.77;101638.41;5009154;28;20390;-72
2022/05/26 09:50:37;;;;;;;0.88;0.40;;;;;;;18.64;69.49;101641.78;5048644;28;20034;-72
2022/05/26 09:53:07;;;;;;;1.85;0.65;;;;;;;18.72;68.79;101646.63;5036722;28;20037;-72
2022/05/26 09:55:40;;;;;;;1.33;0.40;;;;;;;18.78;68.21;101647.38;5035309;28;20049;-72
2022/05/26 09:58:11;;;;;;;0.52;0.30;;;;;;;18.90;68.06;101655.22;5035284;28;20057;-69
2022/05/26 10:00:39;;;;;;;2.05;0.40;;;;;;;18.95;69.35;101650.28;5015782;28;20032;-75
2022/05/26 10:03:36;;;;;;;0.95;0.32;;;;;;;19.05;69.15;101653.94;5062328;28;20509;-74
2022/05/26 10:06:11;;;;;;;3.25;0.30;;;;;;;19.16;68.28;101655.31;5016188;28;20026;-74
2022/05/26 10:08:49;;;;;;;0.75;0.28;;;;;;;19.23;67.64;101650.06;4986666;28;20025;-74
2022/05/26 10:11:21;;;;;;;0.95;0.40;;;;;;;19.30;66.47;101647.59;5034939;28;20034;-73
2022/05/26 10:14:19;;;;;;;2.47;0.40;;;;;;;19.39;64.62;101650.47;5035920;28;20619;-74
2022/05/26 10:16:51;;;;;;;3.30;0.52;;;;;;;19.52;64.56;101651.47;5024750;28;20026;-74
2022/05/26 10:19:33;;;;;;;1.67;0.40;;;;;;;19.59;64.65;101649.03;4985153;28;20033;-75
2022/05/26 10:22:42;;;;;;;2.72;0.50;;;;;;;19.68;63.96;101651.88;5003314;28;20080;-76
2022/05/26 10:25:20;;;;;;;0.90;0.38;;;;;;;19.72;63.92;101653.69;5015516;28;20042;-76
2022/05/26 10:27:58;;;;;;;2.25;0.40;;;;;;;19.80;63.69;101652.88;4999696;28;20454;-76
2022/05/26 10:30:24;;;;;;;1.15;0.57;;;;;;;19.85;65.18;101654.72;5027599;28;20051;-76
2022/05/26 10:33:02;;;;;;;1.23;0.50;;;;;;;19.89;66.10;101657.72;4999705;28;20115;-77
2022/05/26 10:35:46;;;;;;;2.47;0.50;;;;;;;19.93;65.96;101662.38;5020451;28;20045;-75
2022/05/26 10:38:31;;;;;;;1.70;0.60;;;;;;;19.93;64.83;101656.72;5036201;28;20165;-77
2022/05/26 10:41:01;;;;;;;1.55;0.60;;;;;;;19.93;65.04;101653.09;5021136;28;20026;-77
2022/05/26 10:43:49;;;;;;;1.10;0.50;;;;;;;19.93;66.66;101655.91;5018267;28;20088;-77
2022/05/26 10:46:16;;;;;;;2.55;0.85;;;;;;;19.92;67.18;101651.41;4999279;28;20033;-77
2022/05/26 10:49:01;;;;;;;2.80;0.57;;;;;;;19.94;67.17;101646.28;5009133;28;20406;-77
2022/05/26 10:51:45;;;;;;;3.97;0.70;;;;;;;19.94;67.75;101651.91;5034592;28;20036;-77
2022/05/26 10:54:15;;;;;;;2.45;0.88;;;;;;;19.97;67.73;101654.06;5020540;28;20121;-77
2022/05/26 10:57:12;;;;;;;2.38;0.70;;;;;;;19.99;67.01;101646.13;5005816;28;20052;-74
2022/05/26 10:59:49;;;;;;;3.30;0.98;;;;;;;20.02;66.25;101649.09;5005223;28;20045;-73
2022/05/26 11:02:29;;;;;;;2.55;0.50;;;;;;;20.08;65.43;101642.13;5002749;28;20065;-72
2022/05/26 11:05:04;;;;;;;2.75;0.50;;;;;;;20.16;64.63;101648.13;5018336;28;20034;-73
2022/05/26 11:07:43;;;;;;;1.58;0.55;;;;;;;20.22;63.94;101652.44;5022578;28;20025;-72
2022/05/26 11:10:31;;;;;;;2.40;0.65;;;;;;;20.29;63.38;101652.78;5038670;28;20025;-72
2022/05/26 11:13:17;;;;;;;3.33;0.70;;;;;;;20.36;63.06;101657.91;5051305;28;20056;-72
2022/05/26 11:18:33;;;;;;;2.85;1.00;;;;;;;20.41;61.29;101655.72;5014169;28;20121;-73
2022/05/26 11:20:58;;;;;;;2.55;0.80;;;;;;;20.46;60.77;101652.75;5039505;28;20101;-73
2022/05/26 11:23:28;;;;;;;2.13;0.77;;;;;;;20.53;60.65;101666.38;5033950;28;20030;-73
2022/05/26 11:26:02;;;;;;;2.13;0.68;;;;;;;20.58;60.35;101660.56;5037971;28;20036;-73
2022/05/26 11:28:44;;;;;;;1.98;0.63;;;;;;;20.61;61.15;101668.34;5011679;28;20033;-73
2022/05/26 11:37:20;;;;;;;2.45;0.63;;;;;;;20.67;61.31;101660.53;5057094;28;20026;-72
2022/05/26 11:39:46;;;;;;;1.90;0.82;;;;;;;20.65;62.05;101660.88;5003905;28;20025;-73
2022/05/26 11:42:35;;;;;;;2.55;0.80;;;;;;;20.65;61.38;101666.53;4988439;28;20032;-73
2022/05/26 11:45:13;;;;;;;1.75;0.73;;;;;;;20.63;61.06;101665.22;5021579;28;20033;-73
2022/05/26 11:47:53;;;;;;;4.13;2.03;;;;;;;20.49;60.64;101668.19;5038864;28;20430;-74
2022/05/26 11:50:29;;;;;;;3.15;1.50;;;;;;;20.57;60.46;101667.38;5001335;28;20038;-73
2022/05/26 11:52:54;;;;;;;3.72;1.55;;;;;;;20.59;61.09;101667.03;5037663;28;20034;-73
2022/05/26 11:55:33;;;;;;;4.32;1.80;;;;;;;20.62;60.86;101663.56;5038108;28;20033;-73
2022/05/26 11:58:38;;;;;;;4.00;1.58;;;;;;;20.56;60.21;101671.38;5018431;28;20025;-72
2022/05/26 12:01:25;;;;;;;3.75;1.85;;;;;;;20.56;60.24;101657.25;4987306;28;20052;-73
2022/05/26 12:03:53;;;;;;;4.00;2.10;;;;;;;20.56;59.76;101657.25;5038478;28;20498;-73
2022/05/26 12:06:33;;;;;;;4.20;1.92;;;;;;;20.56;60.24;101660.09;5039539;28;20037;-73
2022/05/26 12:09:09;;;;;;;2.97;1.60;;;;;;;20.58;60.51;101663.38;5037096;28;20031;-72
2022/05/26 12:12:05;;;;;;;3.90;1.63;;;;;;;20.62;60.87;101667.22;5017102;28;20475;-73
2022/05/26 12:14:59;;;;;;;2.60;1.30;;;;;;;20.60;62.75;101663.88;5033957;28;20037;-73
2022/05/26 12:17:27;;;;;;;;;;;;;;;20.63;63.77;101657.56;5031984;28;20060;-72
2022/05/26 12:19:52;;;;;;;2.42;1.23;;;;;;;20.71;63.47;101651.06;5026730;28;19913;-73
2022/05/26 12:22:26;;;;;;;1.45;0.90;;;;;;;20.72;62.44;101658.38;5004017;28;20564;-72